sensor_id;sensor_type;location;lat;lon;timestamp;pressure;altitude;pressure_sealevel;temperature;humidity
13765;BME280;6953;48.810;9.204;2022-12-07T00:00:00;98871.28;;;6.94;100.00
13765;BME280;6953;48.810;9.204;2022-12-07T00:02:26;98897.13;;;7.01;100.00
13765;BME280;6953;48.810;9.204;2022-12-07T00:04:52;98685.53;;;5.94;100.00
13765;BME280;6953;48.810;9.204;2022-12-07T00:07:17;98840.38;;;6.83;100.00
13765;BME280;6953;48.810;9.204;2022-12-07T00:09:42;98866.75;;;7.00;100.00
13765;BME280;6953;48.810;9.204;2022-12-07T00:12:08;98876.25;;;7.01;100.00
13765;BME280;6953;48.810;9.204;2022-12-07T00:14:33;98787.19;;;6.41;100.00
13765;BME280;6953;48.810;9.204;2022-12-07T00:16:58;98873.28;;;6.87;100.00
13765;BME280;6953;48.810;9.204;2022-12-07T00:19:24;98614.69;;;5.36;100.00
13765;BME280;6953;48.810;9.204;2022-12-07T00:21:49;98892.97;;;6.71;100.00
13765;BME280;6953;48.810;9.204;2022-12-07T00:24:15;98870.91;;;6.81;100.00
13765;BME280;6953;48.810;9.204;2022-12-07T00:26:41;98869.88;;;6.85;100.00
13765;BME280;6953;48.810;9.204;2022-12-07T00:29:11;98879.88;;;6.73;100.00
13765;BME280;6953;48.810;9.204;2022-12-07T00:31:38;98856.16;;;6.80;100.00
13765;BME280;6953;48.810;9.204;2022-12-07T00:34:05;98669.66;;;5.76;100.00
13765;BME280;6953;48.810;9.204;2022-12-07T00:36:30;98611.19;;;5.37;100.00
13765;BME280;6953;48.810;9.204;2022-12-07T00:38:59;98777.66;;;6.40;100.00
13765;BME280;6953;48.810;9.204;2022-12-07T00:41:26;98600.81;;;5.35;100.00
13765;BME280;6953;48.810;9.204;2022-12-07T00:43:52;98856.97;;;6.82;100.00
13765;BME280;6953;48.810;9.204;2022-12-07T00:46:18;98873.81;;;6.72;100.00
13765;BME280;6953;48.810;9.204;2022-12-07T00:48:44;98782.91;;;6.39;100.00
13765;BME280;6953;48.810;9.204;2022-12-07T00:51:11;98870.91;;;6.81;100.00
13765;BME280;6953;48.810;9.204;2022-12-07T00:53:38;98788.19;;;6.37;100.00
13765;BME280;6953;48.810;9.204;2022-12-07T00:56:08;98855.47;;;6.75;100.00
13765;BME280;6953;48.810;9.204;2022-12-07T00:58:33;98866.06;;;6.71;100.00
13765;BME280;6953;48.810;9.204;2022-12-07T01:01:03;98605.00;;;5.13;100.00
13765;BME280;6953;48.810;9.204;2022-12-07T01:03:29;98744.72;;;5.89;100.00
13765;BME280;6953;48.810;9.204;2022-12-07T01:05:55;98904.63;;;6.61;100.00
13765;BME280;6953;48.810;9.204;2022-12-07T01:08:22;98882.19;;;6.56;100.00
13765;BME280;6953;48.810;9.204;2022-12-07T01:10:48;98867.69;;;6.49;100.00
13765;BME280;6953;48.810;9.204;2022-12-07T01:13:15;98766.41;;;5.90;100.00
13765;BME280;6953;48.810;9.204;2022-12-07T01:15:42;98870.34;;;6.47;100.00
13765;BME280;6953;48.810;9.204;2022-12-07T01:18:08;98870.44;;;6.44;100.00
13765;BME280;6953;48.810;9.204;2022-12-07T01:20:33;98812.06;;;6.00;100.00
13765;BME280;6953;48.810;9.204;2022-12-07T01:22:59;98662.03;;;5.19;100.00
13765;BME280;6953;48.810;9.204;2022-12-07T01:25:24;98871.75;;;6.31;100.00
13765;BME280;6953;48.810;9.204;2022-12-07T01:27:49;98787.47;;;5.82;100.00
13765;BME280;6953;48.810;9.204;2022-12-07T01:30:15;98878.72;;;6.31;100.00
13765;BME280;6953;48.810;9.204;2022-12-07T01:32:40;98894.38;;;6.31;100.00
13765;BME280;6953;48.810;9.204;2022-12-07T01:35:06;98877.88;;;6.30;100.00
13765;BME280;6953;48.810;9.204;2022-12-07T01:37:36;98622.50;;;4.83;100.00
13765;BME280;6953;48.810;9.204;2022-12-07T01:40:03;98622.41;;;4.86;100.00
13765;BME280;6953;48.810;9.204;2022-12-07T01:42:28;98884.78;;;6.31;100.00
13765;BME280;6953;48.810;9.204;2022-12-07T01:47:57;98883.94;;;6.31;100.00
13765;BME280;6953;48.810;9.204;2022-12-07T01:50:26;98859.19;;;6.18;100.00
13765;BME280;6953;48.810;9.204;2022-12-07T01:52:53;98837.88;;;6.06;100.00
13765;BME280;6953;48.810;9.204;2022-12-07T01:55:21;98791.88;;;5.80;100.00
13765;BME280;6953;48.810;9.204;2022-12-07T01:57:48;98836.09;;;6.08;100.00
13765;BME280;6953;48.810;9.204;2022-12-07T02:00:15;98891.63;;;6.34;100.00
13765;BME280;6953;48.810;9.204;2022-12-07T02:02:48;98816.25;;;5.78;100.00
13765;BME280;6953;48.810;9.204;2022-12-07T02:05:17;98693.13;;;5.22;100.00
13765;BME280;6953;48.810;9.204;2022-12-07T02:07:45;98884.63;;;6.36;100.00
13765;BME280;6953;48.810;9.204;2022-12-07T02:12:42;98692.34;;;5.20;100.00
13765;BME280;6953;48.810;9.204;2022-12-07T02:15:09;98876.97;;;6.31;100.00
13765;BME280;6953;48.810;9.204;2022-12-07T02:22:54;98881.28;;;6.32;100.00
13765;BME280;6953;48.810;9.204;2022-12-07T02:31:06;98866.47;;;6.33;100.00
13765;BME280;6953;48.810;9.204;2022-12-07T02:33:44;98867.38;;;6.32;100.00
13765;BME280;6953;48.810;9.204;2022-12-07T02:36:16;98749.81;;;5.66;100.00
13765;BME280;6953;48.810;9.204;2022-12-07T02:39:02;98676.72;;;5.20;100.00
13765;BME280;6953;48.810;9.204;2022-12-07T02:41:48;98845.16;;;6.22;100.00
13765;BME280;6953;48.810;9.204;2022-12-07T02:44:20;98653.94;;;5.01;100.00
13765;BME280;6953;48.810;9.204;2022-12-07T02:46:52;98858.13;;;6.23;100.00
13765;BME280;6953;48.810;9.204;2022-12-07T02:49:21;98860.69;;;6.25;100.00
13765;BME280;6953;48.810;9.204;2022-12-07T02:51:47;98859.88;;;6.23;100.00
13765;BME280;6953;48.810;9.204;2022-12-07T02:54:16;98849.41;;;6.24;100.00
13765;BME280;6953;48.810;9.204;2022-12-07T02:56:56;98844.41;;;6.18;100.00
13765;BME280;6953;48.810;9.204;2022-12-07T03:07:18;98769.31;;;5.81;100.00
13765;BME280;6953;48.810;9.204;2022-12-07T03:09:57;98847.66;;;6.25;100.00
13765;BME280;6953;48.810;9.204;2022-12-07T03:12:31;98522.69;;;4.36;100.00
13765;BME280;6953;48.810;9.204;2022-12-07T03:17:55;98822.00;;;6.13;100.00
13765;BME280;6953;48.810;9.204;2022-12-07T03:20:23;98769.31;;;5.81;100.00
13765;BME280;6953;48.810;9.204;2022-12-07T03:22:50;98859.09;;;6.21;100.00
13765;BME280;6953;48.810;9.204;2022-12-07T03:25:18;98827.38;;;6.09;100.00
13765;BME280;6953;48.810;9.204;2022-12-07T03:27:57;98841.75;;;6.20;100.00
13765;BME280;6953;48.810;9.204;2022-12-07T03:30:30;98843.44;;;6.21;100.00
13765;BME280;6953;48.810;9.204;2022-12-07T03:33:04;98742.84;;;5.67;100.00
13765;BME280;6953;48.810;9.204;2022-12-07T03:35:43;98834.00;;;6.18;100.00
13765;BME280;6953;48.810;9.204;2022-12-07T03:38:14;98828.78;;;6.18;100.00
13765;BME280;6953;48.810;9.204;2022-12-07T03:40:45;98823.63;;;6.17;100.00
13765;BME280;6953;48.810;9.204;2022-12-07T03:43:12;98813.63;;;6.05;100.00
13765;BME280;6953;48.810;9.204;2022-12-07T03:45:43;98855.03;;;6.13;100.00
13765;BME280;6953;48.810;9.204;2022-12-07T03:53:18;98829.19;;;6.07;100.00
13765;BME280;6953;48.810;9.204;2022-12-07T03:55:47;98822.25;;;6.06;100.00
13765;BME280;6953;48.810;9.204;2022-12-07T03:58:17;98828.44;;;6.03;100.00
13765;BME280;6953;48.810;9.204;2022-12-07T04:00:44;98813.34;;;5.87;100.00
13765;BME280;6953;48.810;9.204;2022-12-07T04:03:11;98830.56;;;5.91;100.00
13765;BME280;6953;48.810;9.204;2022-12-07T04:05:37;98779.53;;;5.32;100.00
13765;BME280;6953;48.810;9.204;2022-12-07T04:08:03;98825.03;;;5.74;100.00
13765;BME280;6953;48.810;9.204;2022-12-07T04:10:29;98558.97;;;4.09;100.00
13765;BME280;6953;48.810;9.204;2022-12-07T04:12:54;98817.16;;;5.49;100.00
13765;BME280;6953;48.810;9.204;2022-12-07T04:15:20;98818.56;;;5.30;100.00
13765;BME280;6953;48.810;9.204;2022-12-07T04:17:45;98707.72;;;4.43;100.00
13765;BME280;6953;48.810;9.204;2022-12-07T04:20:11;98846.50;;;4.95;100.00
13765;BME280;6953;48.810;9.204;2022-12-07T04:22:37;98524.44;;;3.17;100.00
13765;BME280;6953;48.810;9.204;2022-12-07T04:25:03;98795.06;;;4.77;100.00
13765;BME280;6953;48.810;9.204;2022-12-07T04:27:28;98705.78;;;4.19;100.00
13765;BME280;6953;48.810;9.204;2022-12-07T04:29:53;98831.53;;;4.73;100.00
13765;BME280;6953;48.810;9.204;2022-12-07T04:32:20;98786.06;;;4.58;100.00
13765;BME280;6953;48.810;9.204;2022-12-07T04:34:46;98789.88;;;4.76;100.00
13765;BME280;6953;48.810;9.204;2022-12-07T04:37:11;98789.56;;;4.86;100.00
13765;BME280;6953;48.810;9.204;2022-12-07T04:39:36;98795.34;;;4.96;100.00
13765;BME280;6953;48.810;9.204;2022-12-07T04:42:02;98785.44;;;5.10;100.00
13765;BME280;6953;48.810;9.204;2022-12-07T04:44:28;98572.22;;;4.00;100.00
13765;BME280;6953;48.810;9.204;2022-12-07T04:46:54;98744.81;;;5.06;100.00
13765;BME280;6953;48.810;9.204;2022-12-07T04:49:20;98777.16;;;5.24;100.00
13765;BME280;6953;48.810;9.204;2022-12-07T04:51:46;98758.31;;;5.18;100.00
13765;BME280;6953;48.810;9.204;2022-12-07T04:54:13;98755.78;;;5.15;100.00
13765;BME280;6953;48.810;9.204;2022-12-07T04:56:39;98773.94;;;5.16;100.00
13765;BME280;6953;48.810;9.204;2022-12-07T04:59:05;98510.16;;;3.64;100.00
13765;BME280;6953;48.810;9.204;2022-12-07T05:01:31;98745.00;;;5.00;100.00
13765;BME280;6953;48.810;9.204;2022-12-07T05:03:56;98797.81;;;5.29;100.00
13765;BME280;6953;48.810;9.204;2022-12-07T05:06:22;98812.28;;;5.37;100.00
13765;BME280;6953;48.810;9.204;2022-12-07T05:08:48;98786.34;;;5.36;100.00
13765;BME280;6953;48.810;9.204;2022-12-07T05:11:13;98810.91;;;5.26;100.00
13765;BME280;6953;48.810;9.204;2022-12-07T05:14:00;98797.41;;;5.13;100.00
13765;BME280;6953;48.810;9.204;2022-12-07T05:16:26;98792.25;;;4.83;100.00
13765;BME280;6953;48.810;9.204;2022-12-07T05:18:51;98800.63;;;4.94;100.00
13765;BME280;6953;48.810;9.204;2022-12-07T05:21:17;98554.00;;;3.42;100.00
13765;BME280;6953;48.810;9.204;2022-12-07T05:23:43;98696.25;;;4.19;100.00
13765;BME280;6953;48.810;9.204;2022-12-07T05:26:08;98836.66;;;4.76;100.00
13765;BME280;6953;48.810;9.204;2022-12-07T05:28:33;98821.44;;;4.62;100.00
13765;BME280;6953;48.810;9.204;2022-12-07T05:30:59;98549.66;;;3.11;100.00
13765;BME280;6953;48.810;9.204;2022-12-07T05:33:24;98809.63;;;4.51;100.00
13765;BME280;6953;48.810;9.204;2022-12-07T05:35:49;98811.00;;;4.32;100.00
13765;BME280;6953;48.810;9.204;2022-12-07T05:38:15;98826.44;;;4.06;100.00
13765;BME280;6953;48.810;9.204;2022-12-07T05:40:40;98550.59;;;2.39;100.00
13765;BME280;6953;48.810;9.204;2022-12-07T05:43:05;98820.97;;;3.82;100.00
13765;BME280;6953;48.810;9.204;2022-12-07T05:45:31;98813.38;;;3.74;100.00
13765;BME280;6953;48.810;9.204;2022-12-07T05:47:56;98847.91;;;3.76;100.00
13765;BME280;6953;48.810;9.204;2022-12-07T05:50:21;98557.97;;;2.17;100.00
13765;BME280;6953;48.810;9.204;2022-12-07T05:52:47;98611.47;;;2.55;100.00
13765;BME280;6953;48.810;9.204;2022-12-07T05:55:12;98620.66;;;2.68;100.00
13765;BME280;6953;48.810;9.204;2022-12-07T05:57:38;98513.91;;;2.20;100.00
13765;BME280;6953;48.810;9.204;2022-12-07T06:00:04;98591.00;;;2.81;100.00
13765;BME280;6953;48.810;9.204;2022-12-07T06:02:29;98820.69;;;4.27;100.00
13765;BME280;6953;48.810;9.204;2022-12-07T06:04:55;98803.28;;;4.29;100.00
13765;BME280;6953;48.810;9.204;2022-12-07T06:07:20;98853.03;;;4.47;100.00
13765;BME280;6953;48.810;9.204;2022-12-07T06:09:46;98835.78;;;4.45;100.00
13765;BME280;6953;48.810;9.204;2022-12-07T06:12:12;98809.63;;;4.51;100.00
13765;BME280;6953;48.810;9.204;2022-12-07T06:14:56;98818.06;;;4.59;100.00
13765;BME280;6953;48.810;9.204;2022-12-07T06:17:22;98542.91;;;3.06;100.00
13765;BME280;6953;48.810;9.204;2022-12-07T06:19:47;98825.34;;;4.78;100.00
13765;BME280;6953;48.810;9.204;2022-12-07T06:22:13;98736.53;;;4.34;100.00
13765;BME280;6953;48.810;9.204;2022-12-07T06:24:39;98635.94;;;3.80;100.00
13765;BME280;6953;48.810;9.204;2022-12-07T06:27:06;98841.19;;;5.00;100.00
13765;BME280;6953;48.810;9.204;2022-12-07T06:29:31;98829.66;;;5.08;100.00
13765;BME280;6953;48.810;9.204;2022-12-07T06:31:57;98816.56;;;5.11;100.00
13765;BME280;6953;48.810;9.204;2022-12-07T06:34:23;98821.47;;;5.20;100.00
13765;BME280;6953;48.810;9.204;2022-12-07T06:36:50;98816.19;;;5.23;100.00
13765;BME280;6953;48.810;9.204;2022-12-07T06:39:22;98827.31;;;5.28;100.00
13765;BME280;6953;48.810;9.204;2022-12-07T06:41:49;98804.72;;;5.30;100.00
13765;BME280;6953;48.810;9.204;2022-12-07T06:44:16;98688.19;;;4.59;100.00
13765;BME280;6953;48.810;9.204;2022-12-07T06:46:42;98853.66;;;5.17;100.00
13765;BME280;6953;48.810;9.204;2022-12-07T06:49:07;98773.25;;;4.81;100.00
13765;BME280;6953;48.810;9.204;2022-12-07T06:51:33;98553.72;;;3.53;100.00
13765;BME280;6953;48.810;9.204;2022-12-07T06:54:04;98764.78;;;4.75;100.00
13765;BME280;6953;48.810;9.204;2022-12-07T06:56:29;98828.50;;;5.18;100.00
13765;BME280;6953;48.810;9.204;2022-12-07T06:58:54;98794.03;;;4.83;100.00
13765;BME280;6953;48.810;9.204;2022-12-07T07:01:20;98833.59;;;5.21;100.00
13765;BME280;6953;48.810;9.204;2022-12-07T07:03:46;98801.19;;;5.04;100.00
13765;BME280;6953;48.810;9.204;2022-12-07T07:06:12;98771.53;;;4.82;100.00
13765;BME280;6953;48.810;9.204;2022-12-07T07:08:39;98829.13;;;5.26;100.00
13765;BME280;6953;48.810;9.204;2022-12-07T07:11:05;98836.75;;;5.32;100.00
13765;BME280;6953;48.810;9.204;2022-12-07T07:13:31;98820.28;;;5.31;100.00
13765;BME280;6953;48.810;9.204;2022-12-07T07:15:57;98597.00;;;4.10;100.00
13765;BME280;6953;48.810;9.204;2022-12-07T07:18:23;98836.94;;;5.53;100.00
13765;BME280;6953;48.810;9.204;2022-12-07T07:20:50;98776.28;;;5.25;100.00
13765;BME280;6953;48.810;9.204;2022-12-07T07:23:15;98617.16;;;4.31;100.00
13765;BME280;6953;48.810;9.204;2022-12-07T07:25:41;98680.41;;;4.59;100.00
13765;BME280;6953;48.810;9.204;2022-12-07T07:28:06;98516.44;;;3.86;99.05
13765;BME280;6953;48.810;9.204;2022-12-07T07:30:32;98882.91;;;5.83;98.58
13765;BME280;6953;48.810;9.204;2022-12-07T07:32:59;98826.63;;;5.79;96.65
13765;BME280;6953;48.810;9.204;2022-12-07T07:35:26;98851.13;;;6.00;96.67
13765;BME280;6953;48.810;9.204;2022-12-07T07:37:52;98581.88;;;4.53;94.83
13765;BME280;6953;48.810;9.204;2022-12-07T07:40:18;98830.13;;;6.04;94.58
13765;BME280;6953;48.810;9.204;2022-12-07T07:42:43;98556.13;;;4.45;93.17
13765;BME280;6953;48.810;9.204;2022-12-07T07:45:09;98872.91;;;6.23;92.70
13765;BME280;6953;48.810;9.204;2022-12-07T07:47:34;98590.66;;;4.76;91.63
13765;BME280;6953;48.810;9.204;2022-12-07T07:50:00;98859.56;;;6.32;91.02
13765;BME280;6953;48.810;9.204;2022-12-07T07:52:25;98857.66;;;6.37;90.39
13765;BME280;6953;48.810;9.204;2022-12-07T07:54:51;98861.03;;;6.40;90.22
13765;BME280;6953;48.810;9.204;2022-12-07T07:57:17;98666.63;;;5.37;89.58
13765;BME280;6953;48.810;9.204;2022-12-07T07:59:42;98865.00;;;6.52;88.88
13765;BME280;6953;48.810;9.204;2022-12-07T08:02:18;98757.31;;;6.01;88.68
13765;BME280;6953;48.810;9.204;2022-12-07T08:04:44;98895.03;;;6.62;88.57
13765;BME280;6953;48.810;9.204;2022-12-07T08:07:10;98859.19;;;6.68;87.78
13765;BME280;6953;48.810;9.204;2022-12-07T08:09:37;98838.34;;;6.42;87.20
13765;BME280;6953;48.810;9.204;2022-12-07T08:12:02;98594.91;;;5.30;86.74
13765;BME280;6953;48.810;9.204;2022-12-07T08:14:28;98602.16;;;5.47;86.10
13765;BME280;6953;48.810;9.204;2022-12-07T08:16:54;98861.44;;;7.02;86.34
13765;BME280;6953;48.810;9.204;2022-12-07T08:19:19;98855.16;;;7.07;85.75
13765;BME280;6953;48.810;9.204;2022-12-07T08:21:44;98852.44;;;7.33;85.28
13765;BME280;6953;48.810;9.204;2022-12-07T08:24:10;98774.81;;;6.94;85.05
13765;BME280;6953;48.810;9.204;2022-12-07T08:26:35;98570.41;;;5.86;84.82
13765;BME280;6953;48.810;9.204;2022-12-07T08:29:00;98854.56;;;7.68;84.29
13765;BME280;6953;48.810;9.204;2022-12-07T08:31:26;98876.13;;;7.73;83.64
13765;BME280;6953;48.810;9.204;2022-12-07T08:33:53;98836.25;;;7.69;83.18
13765;BME280;6953;48.810;9.204;2022-12-07T08:36:18;98863.88;;;7.96;82.24
13765;BME280;6953;48.810;9.204;2022-12-07T08:38:44;98794.59;;;7.66;81.53
13765;BME280;6953;48.810;9.204;2022-12-07T08:41:09;98865.09;;;8.09;79.83
13765;BME280;6953;48.810;9.204;2022-12-07T08:43:35;98834.69;;;8.07;79.25
13765;BME280;6953;48.810;9.204;2022-12-07T08:46:18;98867.16;;;8.44;78.62
13765;BME280;6953;48.810;9.204;2022-12-07T08:49:06;98866.94;;;8.48;78.27
13765;BME280;6953;48.810;9.204;2022-12-07T08:51:33;98838.63;;;8.38;77.31
13765;BME280;6953;48.810;9.204;2022-12-07T08:54:01;98778.13;;;8.06;76.46
13765;BME280;6953;48.810;9.204;2022-12-07T08:56:28;98810.88;;;8.35;76.64
13765;BME280;6953;48.810;9.204;2022-12-07T08:58:53;98630.53;;;7.36;75.11
13765;BME280;6953;48.810;9.204;2022-12-07T09:01:18;98863.84;;;8.80;75.38
13765;BME280;6953;48.810;9.204;2022-12-07T09:03:44;98866.91;;;8.90;74.54
13765;BME280;6953;48.810;9.204;2022-12-07T09:06:09;98687.34;;;7.91;73.76
13765;BME280;6953;48.810;9.204;2022-12-07T09:08:42;98661.34;;;7.88;73.53
13765;BME280;6953;48.810;9.204;2022-12-07T09:11:10;98817.41;;;8.85;72.68
13765;BME280;6953;48.810;9.204;2022-12-07T09:13:36;98819.13;;;9.05;71.77
13765;BME280;6953;48.810;9.204;2022-12-07T09:16:01;98612.13;;;7.99;71.41
13765;BME280;6953;48.810;9.204;2022-12-07T09:18:27;98855.28;;;9.53;70.46
13765;BME280;6953;48.810;9.204;2022-12-07T09:20:52;98870.38;;;9.67;68.74
13765;BME280;6953;48.810;9.204;2022-12-07T09:23:17;98860.13;;;9.79;68.02
13765;BME280;6953;48.810;9.204;2022-12-07T09:25:43;98843.31;;;9.85;67.35
13765;BME280;6953;48.810;9.204;2022-12-07T09:28:09;98850.16;;;9.87;66.83
13765;BME280;6953;48.810;9.204;2022-12-07T09:30:35;98863.69;;;10.15;65.81
13765;BME280;6953;48.810;9.204;2022-12-07T09:33:00;98859.38;;;10.31;64.86
13765;BME280;6953;48.810;9.204;2022-12-07T09:35:26;98619.94;;;8.94;64.29
13765;BME280;6953;48.810;9.204;2022-12-07T09:37:52;98791.34;;;10.11;63.94
13765;BME280;6953;48.810;9.204;2022-12-07T09:40:21;98886.72;;;10.61;64.21
13765;BME280;6953;48.810;9.204;2022-12-07T09:42:52;98859.94;;;10.71;63.18
13765;BME280;6953;48.810;9.204;2022-12-07T09:45:24;98724.13;;;9.92;62.55
13765;BME280;6953;48.810;9.204;2022-12-07T09:47:51;98608.38;;;9.33;63.03
13765;BME280;6953;48.810;9.204;2022-12-07T09:50:23;98877.38;;;10.72;62.33
13765;BME280;6953;48.810;9.204;2022-12-07T09:52:50;98844.03;;;10.74;63.67
13765;BME280;6953;48.810;9.204;2022-12-07T09:55:22;98646.78;;;9.68;63.49
13765;BME280;6953;48.810;9.204;2022-12-07T09:57:49;98839.25;;;10.82;63.53
13765;BME280;6953;48.810;9.204;2022-12-07T10:00:19;98865.81;;;10.76;63.94
13765;BME280;6953;48.810;9.204;2022-12-07T10:02:51;98871.53;;;10.84;63.77
13765;BME280;6953;48.810;9.204;2022-12-07T10:05:35;98575.75;;;9.40;63.77
13765;BME280;6953;48.810;9.204;2022-12-07T10:08:02;98585.81;;;9.47;63.65
13765;BME280;6953;48.810;9.204;2022-12-07T10:10:32;98542.84;;;9.18;63.48
13765;BME280;6953;48.810;9.204;2022-12-07T10:13:04;98760.56;;;10.32;64.20
13765;BME280;6953;48.810;9.204;2022-12-07T10:15:54;98806.47;;;10.57;64.71
13765;BME280;6953;48.810;9.204;2022-12-07T10:21:13;98572.97;;;9.26;65.12
13765;BME280;6953;48.810;9.204;2022-12-07T10:23:42;98816.59;;;10.64;65.12
13765;BME280;6953;48.810;9.204;2022-12-07T10:29:18;98810.72;;;10.59;65.25
13765;BME280;6953;48.810;9.204;2022-12-07T10:31:50;98837.25;;;10.53;65.05
13765;BME280;6953;48.810;9.204;2022-12-07T10:39:45;98744.25;;;9.74;66.49
13765;BME280;6953;48.810;9.204;2022-12-07T10:42:19;98815.38;;;10.02;67.11
13765;BME280;6953;48.810;9.204;2022-12-07T10:44:47;98801.00;;;9.92;67.54
13765;BME280;6953;48.810;9.204;2022-12-07T10:55:26;98802.75;;;9.56;69.80
13765;BME280;6953;48.810;9.204;2022-12-07T11:00:46;98798.28;;;9.22;72.13
13765;BME280;6953;48.810;9.204;2022-12-07T11:06:21;98789.91;;;8.95;73.35
13765;BME280;6953;48.810;9.204;2022-12-07T11:09:03;98811.97;;;8.90;74.71
13765;BME280;6953;48.810;9.204;2022-12-07T11:15:03;98786.16;;;8.82;76.64
13765;BME280;6953;48.810;9.204;2022-12-07T11:17:42;98716.84;;;8.34;77.62
13765;BME280;6953;48.810;9.204;2022-12-07T11:23:15;98635.00;;;7.94;78.41
13765;BME280;6953;48.810;9.204;2022-12-07T11:26:06;98773.06;;;8.82;78.46
13765;BME280;6953;48.810;9.204;2022-12-07T11:31:36;98768.75;;;9.00;78.52
13765;BME280;6953;48.810;9.204;2022-12-07T11:34:18;98766.56;;;8.91;79.12
13765;BME280;6953;48.810;9.204;2022-12-07T11:36:50;98766.06;;;8.83;79.46
13765;BME280;6953;48.810;9.204;2022-12-07T11:39:28;98762.53;;;8.84;79.61
13765;BME280;6953;48.810;9.204;2022-12-07T11:42:21;98756.72;;;8.77;79.87
13765;BME280;6953;48.810;9.204;2022-12-07T11:44:57;98762.09;;;8.74;79.99
13765;BME280;6953;48.810;9.204;2022-12-07T11:47:38;98577.22;;;7.61;80.17
13765;BME280;6953;48.810;9.204;2022-12-07T11:52:49;98731.22;;;8.44;81.07
13765;BME280;6953;48.810;9.204;2022-12-07T11:58:20;98545.25;;;7.36;81.39
13765;BME280;6953;48.810;9.204;2022-12-07T12:00:51;98739.38;;;8.56;81.78
13765;BME280;6953;48.810;9.204;2022-12-07T12:03:34;98740.94;;;8.60;82.23
13765;BME280;6953;48.810;9.204;2022-12-07T12:06:01;98772.09;;;8.65;82.11
13765;BME280;6953;48.810;9.204;2022-12-07T12:08:30;98719.53;;;8.71;81.70
13765;BME280;6953;48.810;9.204;2022-12-07T12:11:40;98726.41;;;8.92;81.50
13765;BME280;6953;48.810;9.204;2022-12-07T12:22:14;98490.59;;;7.53;80.64
13765;BME280;6953;48.810;9.204;2022-12-07T12:24:41;98731.56;;;8.93;80.40
13765;BME280;6953;48.810;9.204;2022-12-07T12:27:15;98664.38;;;8.57;80.67
13765;BME280;6953;48.810;9.204;2022-12-07T12:29:43;98757.38;;;9.01;79.76
13765;BME280;6953;48.810;9.204;2022-12-07T12:32:19;98663.56;;;8.75;79.37
13765;BME280;6953;48.810;9.204;2022-12-07T12:42:49;98734.91;;;9.15;79.30
13765;BME280;6953;48.810;9.204;2022-12-07T12:45:25;98480.59;;;7.81;78.29
13765;BME280;6953;48.810;9.204;2022-12-07T12:48:04;98698.91;;;9.02;78.63
13765;BME280;6953;48.810;9.204;2022-12-07T12:50:34;98724.06;;;9.23;78.22
13765;BME280;6953;48.810;9.204;2022-12-07T12:53:25;98722.09;;;9.27;78.57
13765;BME280;6953;48.810;9.204;2022-12-07T12:58:35;98498.91;;;8.00;78.07
13765;BME280;6953;48.810;9.204;2022-12-07T13:03:53;98644.84;;;9.19;76.51
13765;BME280;6953;48.810;9.204;2022-12-07T13:06:32;98706.97;;;9.51;76.14
13765;BME280;6953;48.810;9.204;2022-12-07T13:09:00;98652.56;;;9.22;75.56
13765;BME280;6953;48.810;9.204;2022-12-07T13:11:37;98705.28;;;9.50;76.14
13765;BME280;6953;48.810;9.204;2022-12-07T13:17:12;98528.91;;;8.46;76.11
13765;BME280;6953;48.810;9.204;2022-12-07T13:20:02;98711.75;;;9.43;76.18
13765;BME280;6953;48.810;9.204;2022-12-07T13:27:28;98427.00;;;7.54;76.95
13765;BME280;6953;48.810;9.204;2022-12-07T13:29:56;98685.81;;;9.02;77.51
13765;BME280;6953;48.810;9.204;2022-12-07T13:32:30;98687.97;;;8.94;77.67
13765;BME280;6953;48.810;9.204;2022-12-07T13:34:56;98691.91;;;8.84;78.06
13765;BME280;6953;48.810;9.204;2022-12-07T13:39:50;98690.56;;;8.75;78.88
13765;BME280;6953;48.810;9.204;2022-12-07T13:44:51;98431.06;;;7.23;79.21
13765;BME280;6953;48.810;9.204;2022-12-07T13:47:30;98662.13;;;8.49;79.75
13765;BME280;6953;48.810;9.204;2022-12-07T13:49:57;98685.69;;;8.68;79.92
13765;BME280;6953;48.810;9.204;2022-12-07T13:52:32;98703.28;;;8.64;80.12
13765;BME280;6953;48.810;9.204;2022-12-07T13:57:27;98677.13;;;8.64;80.89
13765;BME280;6953;48.810;9.204;2022-12-07T13:59:53;98678.88;;;8.64;80.67
13765;BME280;6953;48.810;9.204;2022-12-07T14:02:28;98619.38;;;8.32;80.96
13765;BME280;6953;48.810;9.204;2022-12-07T14:05:15;98602.38;;;8.22;80.68
13765;BME280;6953;48.810;9.204;2022-12-07T14:07:54;98678.41;;;8.74;80.99
13765;BME280;6953;48.810;9.204;2022-12-07T14:10:36;98676.34;;;8.81;80.64
13765;BME280;6953;48.810;9.204;2022-12-07T14:13:17;98406.50;;;7.27;80.25
13765;BME280;6953;48.810;9.204;2022-12-07T14:15:50;98513.09;;;7.94;79.95
13765;BME280;6953;48.810;9.204;2022-12-07T14:18:39;98431.03;;;7.43;79.69
13765;BME280;6953;48.810;9.204;2022-12-07T14:21:13;98677.69;;;8.89;79.76
13765;BME280;6953;48.810;9.204;2022-12-07T14:23:40;98673.19;;;8.93;79.87
13765;BME280;6953;48.810;9.204;2022-12-07T14:26:12;98607.59;;;8.60;79.38
13765;BME280;6953;48.810;9.204;2022-12-07T14:28:39;98640.72;;;8.78;79.25
13765;BME280;6953;48.810;9.204;2022-12-07T14:31:24;98589.50;;;8.56;79.37
13765;BME280;6953;48.810;9.204;2022-12-07T14:33:50;98692.06;;;8.99;79.20
13765;BME280;6953;48.810;9.204;2022-12-07T14:36:15;98669.50;;;8.97;79.37
13765;BME280;6953;48.810;9.204;2022-12-07T14:38:41;98700.75;;;8.81;79.53
13765;BME280;6953;48.810;9.204;2022-12-07T14:41:14;98658.97;;;8.61;80.31
13765;BME280;6953;48.810;9.204;2022-12-07T14:43:59;98676.19;;;8.47;80.32
13765;BME280;6953;48.810;9.204;2022-12-07T14:46:24;98669.84;;;8.32;80.91
13765;BME280;6953;48.810;9.204;2022-12-07T14:48:49;98419.19;;;6.76;80.81
13765;BME280;6953;48.810;9.204;2022-12-07T14:51:15;98683.81;;;8.12;81.33
13765;BME280;6953;48.810;9.204;2022-12-07T14:53:48;98677.63;;;8.14;81.44
13765;BME280;6953;48.810;9.204;2022-12-07T14:56:15;98671.19;;;8.03;81.88
13765;BME280;6953;48.810;9.204;2022-12-07T14:58:40;98422.41;;;6.41;81.72
13765;BME280;6953;48.810;9.204;2022-12-07T15:01:06;98688.72;;;7.79;82.24
13765;BME280;6953;48.810;9.204;2022-12-07T15:03:31;98532.72;;;6.83;82.77
13765;BME280;6953;48.810;9.204;2022-12-07T15:05:57;98716.19;;;7.68;83.13
13765;BME280;6953;48.810;9.204;2022-12-07T15:08:22;98652.31;;;7.35;83.33
13765;BME280;6953;48.810;9.204;2022-12-07T15:10:48;98679.00;;;7.63;83.87
13765;BME280;6953;48.810;9.204;2022-12-07T15:13:13;98679.22;;;7.57;84.93